createdAt,value
2022-11-03T00:01:56.597Z,7.97
2022-11-03T00:07:00.156Z,6.87
2022-11-03T00:12:03.307Z,7.00
2022-11-03T00:17:06.704Z,7.47
2022-11-03T00:22:09.545Z,7.63
2022-11-03T00:27:12.861Z,6.30
2022-11-03T00:32:15.763Z,4.53
2022-11-03T00:37:19.078Z,7.40
2022-11-03T00:42:22.014Z,3.27
2022-11-03T00:47:24.868Z,6.80
2022-11-03T00:52:27.729Z,7.07
2022-11-03T00:57:30.640Z,6.93
2022-11-03T01:02:33.527Z,7.70
2022-11-03T01:07:36.449Z,7.73
2022-11-03T01:12:39.187Z,5.57
2022-11-03T01:17:41.886Z,7.50
2022-11-03T01:22:44.585Z,6.87
2022-11-03T01:27:47.773Z,7.17
2022-11-03T01:32:50.504Z,5.50
2022-11-03T01:37:54.639Z,9.33
2022-11-03T01:43:15.131Z,9.83
2022-11-03T01:48:18.624Z,6.83
2022-11-03T01:53:22.185Z,5.87
2022-11-03T01:58:30.610Z,7.17
2022-11-03T02:03:36.955Z,5.40
2022-11-03T02:09:04.886Z,8.77
2022-11-03T02:14:12.745Z,8.10
2022-11-03T02:19:35.228Z,6.00
2022-11-03T02:24:54.085Z,10.37
2022-11-03T02:29:59.119Z,6.93
2022-11-03T02:35:17.663Z,5.20
2022-11-03T02:40:34.750Z,10.70
2022-11-03T02:45:37.949Z,7.37
2022-11-03T02:50:40.753Z,6.70
2022-11-03T02:55:58.559Z,12.57
2022-11-03T03:01:19.106Z,8.53
2022-11-03T03:06:45.428Z,10.73
2022-11-03T03:11:49.518Z,7.77
2022-11-03T03:17:15.744Z,8.97
2022-11-03T03:22:33.437Z,13.33
2022-11-03T03:27:40.198Z,7.83
2022-11-03T03:32:51.361Z,8.70
2022-11-03T03:37:58.551Z,10.83
2022-11-03T03:43:02.684Z,11.83
2022-11-03T03:48:06.649Z,10.57
2022-11-03T03:53:12.076Z,12.37
2022-11-03T03:58:15.885Z,10.60
2022-11-03T04:03:20.988Z,8.07
2022-11-03T04:08:24.103Z,11.07
2022-11-03T04:13:45.208Z,9.07
2022-11-03T04:19:06.963Z,11.37
2022-11-03T04:24:09.909Z,11.50
2022-11-03T04:29:12.699Z,10.97
2022-11-03T04:34:15.632Z,9.57
2022-11-03T04:39:21.644Z,13.70
2022-11-03T04:44:24.448Z,10.67
2022-11-03T04:49:27.443Z,11.33
2022-11-03T04:54:30.371Z,14.93
2022-11-03T04:59:33.767Z,8.33
2022-11-03T05:04:36.520Z,11.83
2022-11-03T05:09:42.815Z,12.67
2022-11-03T05:14:46.097Z,9.30
2022-11-03T05:19:49.268Z,12.57
2022-11-03T05:24:56.878Z,13.97
2022-11-03T05:30:01.108Z,9.77
2022-11-03T05:35:04.790Z,12.33
2022-11-03T05:40:37.332Z,14.60
2022-11-03T05:45:40.404Z,13.70
2022-11-03T05:50:43.398Z,31.30
2022-11-03T05:55:46.210Z,9.87
2022-11-03T06:00:49.165Z,13.87
2022-11-03T06:05:53.117Z,15.13
2022-11-03T06:10:57.633Z,10.80
2022-11-03T06:16:22.792Z,15.47
2022-11-03T06:21:26.784Z,10.17
2022-11-03T06:26:31.343Z,13.73
2022-11-03T06:31:34.492Z,11.30
2022-11-03T06:36:38.141Z,10.40
2022-11-03T06:41:41.166Z,11.80
2022-11-03T06:46:44.221Z,17.20
2022-11-03T06:51:49.323Z,7.17
2022-11-03T06:56:52.527Z,8.93
2022-11-03T07:01:55.956Z,9.00
2022-11-03T07:07:01.457Z,8.93
2022-11-03T07:12:11.680Z,16.60
2022-11-03T07:17:17.041Z,10.80
2022-11-03T07:22:23.157Z,12.07
2022-11-03T07:27:29.874Z,9.47
2022-11-03T07:32:34.131Z,12.03
2022-11-03T07:37:37.292Z,6.87
2022-11-03T07:42:40.113Z,14.50
2022-11-03T07:47:44.303Z,8.93
2022-11-03T07:52:47.231Z,12.23
2022-11-03T07:57:50.258Z,11.27
2022-11-03T08:02:57.359Z,13.93
2022-11-03T08:08:00.169Z,12.27
2022-11-03T08:13:03.071Z,14.90
2022-11-03T08:18:06.037Z,12.43
2022-11-03T08:23:25.385Z,11.90
2022-11-03T08:28:29.196Z,14.43
2022-11-03T08:33:33.574Z,13.47
2022-11-03T08:38:36.909Z,12.60
2022-11-03T08:43:40.127Z,12.80
2022-11-03T08:48:43.087Z,10.57
2022-11-03T08:53:50.652Z,12.30
2022-11-03T08:58:53.778Z,15.70
2022-11-03T09:03:56.752Z,12.77
2022-11-03T09:14:23.450Z,13.63
2022-11-03T09:19:26.252Z,8.43
2022-11-03T09:24:29.439Z,7.70
2022-11-03T09:29:51.677Z,11.40
2022-11-03T09:34:55.487Z,11.73
2022-11-03T09:39:59.016Z,12.83
2022-11-03T09:45:02.249Z,7.27
2022-11-03T09:50:06.171Z,9.80
2022-11-03T09:55:23.309Z,8.70
2022-11-03T10:00:27.548Z,7.47
2022-11-03T10:05:33.853Z,8.00
2022-11-03T10:10:37.927Z,8.17
2022-11-03T10:15:42.343Z,6.93
2022-11-03T10:20:45.486Z,7.80
2022-11-03T10:25:48.480Z,9.17
2022-11-03T10:31:10.520Z,5.80
2022-11-03T10:36:16.934Z,6.20
2022-11-03T10:41:21.149Z,10.33
2022-11-03T10:46:48.566Z,6.60
2022-11-03T10:51:52.750Z,9.13
2022-11-03T10:56:55.895Z,8.63
2022-11-03T11:01:59.623Z,9.97
2022-11-03T11:07:04.012Z,7.30
2022-11-03T11:12:16.428Z,6.87
2022-11-03T11:17:37.720Z,8.93
2022-11-03T11:22:40.985Z,5.37
2022-11-03T11:27:44.070Z,9.60
2022-11-03T11:32:50.673Z,13.10
2022-11-03T11:37:54.449Z,8.53
2022-11-03T11:43:11.180Z,7.47
2022-11-03T11:48:19.134Z,8.80
2022-11-03T11:53:26.273Z,10.23
2022-11-03T11:58:43.679Z,10.80
2022-11-03T12:03:46.857Z,11.70
2022-11-03T12:08:49.946Z,11.83
2022-11-03T12:13:53.191Z,7.67
2022-11-03T12:18:56.748Z,12.47
2022-11-03T12:23:59.492Z,7.77
2022-11-03T12:29:02.575Z,11.77
2022-11-03T12:34:05.689Z,7.73
2022-11-03T12:39:08.683Z,9.63
2022-11-03T12:44:11.776Z,8.87
2022-11-03T12:49:14.701Z,8.73
2022-11-03T12:54:17.662Z,12.87
2022-11-03T12:59:20.703Z,8.13
2022-11-03T13:04:23.704Z,9.83
2022-11-03T13:09:26.694Z,8.07
2022-11-03T13:14:29.723Z,9.80
2022-11-03T13:19:32.875Z,7.73
2022-11-03T13:24:35.926Z,8.73
2022-11-03T13:29:39.175Z,9.53
2022-11-03T13:34:42.220Z,10.10
2022-11-03T13:39:45.132Z,9.30
2022-11-03T13:44:48.125Z,9.30
2022-11-03T13:50:13.241Z,12.10
2022-11-03T14:00:39.628Z,9.67
2022-11-03T14:05:42.370Z,9.13
2022-11-03T14:10:45.240Z,8.20
2022-11-03T14:15:48.013Z,9.53
2022-11-03T14:20:50.971Z,11.17
2022-11-03T14:26:06.281Z,10.90
2022-11-03T14:31:16.692Z,15.13
2022-11-03T14:36:19.866Z,14.33
2022-11-03T14:41:41.678Z,15.00
2022-11-03T14:46:44.701Z,14.80
2022-11-03T14:51:47.960Z,12.40
2022-11-03T14:56:51.170Z,12.10
2022-11-03T15:01:54.742Z,15.83
2022-11-03T15:06:57.778Z,21.03
2022-11-03T15:12:00.523Z,22.10
2022-11-03T15:17:05.544Z,18.33
2022-11-03T15:22:08.905Z,18.97
2022-11-03T15:27:12.106Z,18.30
2022-11-03T15:32:15.477Z,14.83
2022-11-03T15:37:18.605Z,19.77
2022-11-03T15:42:21.485Z,21.40
2022-11-03T15:47:26.954Z,17.37
2022-11-03T15:52:32.259Z,17.60
2022-11-03T15:57:35.433Z,25.67
2022-11-03T16:02:41.744Z,23.03
2022-11-03T16:07:45.047Z,25.90
2022-11-03T16:12:48.701Z,29.80
2022-11-03T16:17:51.793Z,23.87
2022-11-03T16:22:54.953Z,21.73
2022-11-03T16:27:58.165Z,22.67
2022-11-03T16:33:01.560Z,21.43
2022-11-03T16:38:04.615Z,19.97
2022-11-03T16:43:08.100Z,25.97
2022-11-03T16:48:11.404Z,22.77
2022-11-03T16:53:14.382Z,24.67
2022-11-03T16:58:18.083Z,24.23
2022-11-03T17:03:20.892Z,27.47
2022-11-03T17:08:52.287Z,26.63
2022-11-03T17:13:47.377Z,23.20
2022-11-03T17:18:50.653Z,26.80
2022-11-03T17:23:54.017Z,38.00
2022-11-03T17:28:57.582Z,34.60
2022-11-03T17:34:01.376Z,52.90
2022-11-03T17:39:04.247Z,31.07
2022-11-03T17:44:13.607Z,28.83
2022-11-03T17:49:16.686Z,27.30
2022-11-03T17:54:19.610Z,31.10
2022-11-03T17:59:22.755Z,30.53
2022-11-03T18:04:27.852Z,30.13
2022-11-03T18:09:30.999Z,28.30
2022-11-03T18:14:34.079Z,30.90
2022-11-03T18:19:37.158Z,33.20
2022-11-03T18:24:40.510Z,31.60
2022-11-03T18:29:43.479Z,31.57
2022-11-03T18:34:46.840Z,34.10
2022-11-03T18:39:50.201Z,28.07
2022-11-03T18:44:53.046Z,31.27
2022-11-03T18:49:55.920Z,38.60
2022-11-03T18:54:58.869Z,29.30
2022-11-03T19:00:02.674Z,36.33
2022-11-03T19:05:12.496Z,43.77
2022-11-03T19:10:21.925Z,30.07
2022-11-03T19:15:25.140Z,36.10
2022-11-03T19:20:28.690Z,31.23
2022-11-03T19:25:31.900Z,33.50
2022-11-03T19:30:34.924Z,34.90
2022-11-03T19:35:37.818Z,33.53
2022-11-03T19:41:00.548Z,43.27
2022-11-03T19:46:04.530Z,34.00
2022-11-03T19:51:07.743Z,33.70
2022-11-03T19:56:10.667Z,32.90
2022-11-03T20:01:13.828Z,35.60
2022-11-03T20:06:19.416Z,32.63
2022-11-03T20:11:23.181Z,34.60
2022-11-03T20:16:28.634Z,31.27
2022-11-03T20:21:34.493Z,35.17
2022-11-03T20:26:37.569Z,30.63
2022-11-03T20:31:42.189Z,26.87
2022-11-03T20:36:45.441Z,25.97
2022-11-03T20:41:50.960Z,25.07
2022-11-03T20:46:53.804Z,27.30
2022-11-03T20:51:57.078Z,32.50
2022-11-03T20:57:00.153Z,28.87
2022-11-03T21:02:11.501Z,27.83
2022-11-03T21:07:14.547Z,29.20
2022-11-03T21:12:17.715Z,24.40
2022-11-03T21:17:39.103Z,28.20
2022-11-03T21:22:52.335Z,24.17
2022-11-03T21:27:56.452Z,25.87
2022-11-03T21:32:59.411Z,26.93
2022-11-03T21:38:02.723Z,21.23
2022-11-03T21:43:24.626Z,23.70
2022-11-03T21:48:45.879Z,24.67
2022-11-03T21:53:49.135Z,23.97
2022-11-03T21:58:51.936Z,28.17
2022-11-03T22:03:56.795Z,23.63
2022-11-03T22:09:02.535Z,19.70
2022-11-03T22:14:05.544Z,28.40
2022-11-03T22:19:45.139Z,26.07
2022-11-03T22:25:06.808Z,26.20
2022-11-03T22:30:29.001Z,32.83
2022-11-03T22:35:53.660Z,25.87
2022-11-03T22:41:15.309Z,26.23
2022-11-03T22:46:18.361Z,26.77
2022-11-03T22:51:21.192Z,29.37
2022-11-03T22:56:25.773Z,25.13
2022-11-03T23:01:29.504Z,22.60
2022-11-03T23:06:35.989Z,22.23
2022-11-03T23:11:38.993Z,24.47
2022-11-03T23:16:43.667Z,29.27
2022-11-03T23:21:48.381Z,30.90
2022-11-03T23:26:51.488Z,26.40
2022-11-03T23:31:54.581Z,26.47
2022-11-03T23:36:58.764Z,24.83
2022-11-03T23:42:01.721Z,28.80
2022-11-03T23:47:23.026Z,24.43
2022-11-03T23:52:26.143Z,24.17
2022-11-03T23:57:49.520Z,28.83
